createdAt,value
2022-11-15T00:00:43.734Z,52.80
2022-11-15T00:03:36.188Z,54.70
2022-11-15T00:06:27.002Z,50.90
2022-11-15T00:09:17.529Z,54.20
2022-11-15T00:12:09.330Z,54.20
2022-11-15T00:15:00.325Z,55.20
2022-11-15T00:17:53.673Z,54.10
2022-11-15T00:20:44.204Z,52.90
2022-11-15T00:23:34.704Z,53.90
2022-11-15T00:26:25.530Z,55.20
2022-11-15T00:29:15.640Z,52.50
2022-11-15T00:32:06.205Z,56.00
2022-11-15T00:34:56.992Z,53.30
2022-11-15T00:37:48.659Z,54.00
2022-11-15T00:40:40.785Z,55.70
2022-11-15T00:43:31.605Z,53.20
2022-11-15T00:46:22.666Z,54.90
2022-11-15T00:49:13.742Z,52.40
2022-11-15T00:52:05.896Z,50.50
2022-11-15T00:54:58.318Z,55.90
2022-11-15T00:57:50.258Z,53.30
2022-11-15T01:00:40.978Z,55.90
2022-11-15T01:03:36.415Z,54.20
2022-11-15T01:06:27.851Z,53.80
2022-11-15T01:09:19.121Z,54.70
2022-11-15T01:12:10.357Z,56.00
2022-11-15T01:15:01.917Z,56.80
2022-11-15T01:17:52.757Z,55.20
2022-11-15T01:20:45.436Z,56.30
2022-11-15T01:23:36.751Z,55.50
2022-11-15T01:26:28.459Z,53.60
2022-11-15T01:29:20.830Z,55.60
2022-11-15T01:32:13.805Z,35.90
2022-11-15T01:35:05.960Z,53.40
2022-11-15T01:37:58.240Z,52.70
2022-11-15T01:40:49.490Z,57.10
2022-11-15T01:43:42.077Z,51.10
2022-11-15T01:46:36.243Z,38.50
2022-11-15T01:49:29.254Z,53.80
2022-11-15T01:52:24.743Z,54.60
2022-11-15T01:55:21.588Z,51.60
2022-11-15T01:58:12.660Z,54.50
2022-11-15T02:01:03.399Z,52.40
2022-11-15T02:03:59.237Z,51.50
2022-11-15T02:06:51.941Z,53.10
2022-11-15T02:09:45.223Z,51.90
2022-11-15T02:12:37.188Z,52.50
2022-11-15T02:15:36.605Z,50.70
2022-11-15T02:18:34.957Z,54.70
2022-11-15T02:21:38.345Z,50.20
2022-11-15T02:24:55.382Z,52.10
2022-11-15T02:28:13.202Z,50.40
2022-11-15T02:31:13.604Z,49.70
2022-11-15T02:34:14.014Z,49.80
2022-11-15T02:37:12.651Z,50.60
2022-11-15T02:40:14.779Z,49.40
2022-11-15T02:43:28.111Z,50.10
2022-11-15T02:46:44.471Z,50.70
2022-11-15T02:49:38.570Z,51.20
2022-11-15T02:52:29.743Z,48.60
2022-11-15T02:55:43.805Z,48.10
2022-11-15T02:58:57.596Z,50.10
2022-11-15T03:04:53.611Z,47.70
2022-11-15T03:07:58.109Z,47.00
2022-11-15T03:11:02.937Z,51.00
2022-11-15T03:14:00.014Z,50.30
2022-11-15T03:16:58.683Z,49.00
2022-11-15T03:19:52.937Z,50.20
2022-11-15T03:22:46.753Z,49.90
2022-11-15T03:25:41.025Z,51.50
2022-11-15T03:28:36.013Z,50.20
2022-11-15T03:31:50.512Z,51.00
2022-11-15T03:34:47.191Z,50.20
2022-11-15T03:37:44.715Z,48.30
2022-11-15T03:40:41.771Z,49.40
2022-11-15T03:43:41.711Z,50.00
2022-11-15T03:46:40.077Z,47.40
2022-11-15T03:49:35.190Z,49.90
2022-11-15T03:52:27.121Z,49.60
2022-11-15T03:55:20.879Z,47.30
2022-11-15T03:58:12.201Z,49.50
2022-11-15T04:01:03.384Z,48.30
2022-11-15T04:03:54.709Z,48.50
2022-11-15T04:06:46.863Z,47.20
2022-11-15T04:09:59.413Z,50.60
2022-11-15T04:12:50.515Z,46.10
2022-11-15T04:15:41.610Z,49.30
2022-11-15T04:18:33.617Z,45.40
2022-11-15T04:21:41.838Z,47.50
2022-11-15T04:24:33.434Z,46.90
2022-11-15T04:27:24.757Z,44.60
2022-11-15T04:30:17.922Z,46.10
2022-11-15T04:33:09.699Z,47.60
2022-11-15T04:36:19.004Z,44.00
2022-11-15T04:39:09.701Z,45.70
2022-11-15T04:42:01.781Z,47.90
2022-11-15T04:44:52.542Z,49.10
2022-11-15T04:47:44.904Z,46.40
2022-11-15T04:50:35.968Z,46.20
2022-11-15T04:53:26.935Z,47.10
2022-11-15T04:56:17.303Z,47.90
2022-11-15T04:59:09.383Z,47.10
2022-11-15T05:01:59.834Z,48.10
2022-11-15T05:04:50.891Z,45.70
2022-11-15T05:07:41.882Z,47.90
2022-11-15T05:10:32.476Z,48.30
2022-11-15T05:13:23.317Z,48.20
2022-11-15T05:16:14.887Z,46.00
2022-11-15T05:19:06.169Z,50.10
2022-11-15T05:21:56.533Z,47.50
2022-11-15T05:24:47.259Z,48.60
2022-11-15T05:27:37.927Z,52.30
2022-11-15T05:30:28.387Z,49.90
2022-11-15T05:33:19.160Z,50.00
2022-11-15T05:36:15.633Z,52.70
2022-11-15T05:39:09.360Z,51.30
2022-11-15T05:42:07.109Z,53.10
2022-11-15T05:44:59.227Z,51.50
2022-11-15T05:47:50.764Z,51.50
2022-11-15T05:50:44.473Z,51.90
2022-11-15T05:53:35.413Z,50.70
2022-11-15T05:56:25.905Z,52.50
2022-11-15T05:59:16.750Z,54.50
2022-11-15T06:02:07.172Z,53.60
2022-11-15T06:04:57.588Z,56.80
2022-11-15T06:07:47.890Z,53.50
2022-11-15T06:10:38.425Z,52.60
2022-11-15T06:13:28.851Z,51.60
2022-11-15T06:16:19.497Z,51.30
2022-11-15T06:19:11.299Z,50.90
2022-11-15T06:22:03.525Z,50.80
2022-11-15T06:24:53.951Z,51.40
2022-11-15T06:27:44.732Z,49.30
2022-11-15T06:30:35.217Z,48.80
2022-11-15T06:33:25.603Z,50.20
2022-11-15T06:36:18.165Z,49.60
2022-11-15T06:39:09.364Z,50.90
2022-11-15T06:41:59.674Z,52.00
2022-11-15T06:44:49.734Z,50.90
2022-11-15T06:47:48.779Z,46.60
2022-11-15T06:50:38.851Z,49.90
2022-11-15T06:53:30.365Z,49.80
2022-11-15T06:56:21.229Z,48.40
2022-11-15T06:59:12.120Z,48.30
2022-11-15T07:02:02.633Z,50.60
2022-11-15T07:04:52.866Z,49.00
2022-11-15T07:07:43.446Z,47.90
2022-11-15T07:10:33.928Z,53.20
2022-11-15T07:13:27.975Z,48.60
2022-11-15T07:16:18.724Z,48.90
2022-11-15T07:19:10.370Z,48.40
2022-11-15T07:22:01.333Z,49.20
2022-11-15T07:24:51.842Z,45.80
2022-11-15T07:27:42.303Z,49.20
2022-11-15T07:30:32.588Z,47.10
2022-11-15T07:33:23.338Z,47.80
2022-11-15T07:36:13.780Z,47.80
2022-11-15T07:39:04.654Z,43.00
2022-11-15T07:42:15.387Z,46.80
2022-11-15T07:45:06.704Z,44.20
2022-11-15T07:47:57.862Z,43.80
2022-11-15T07:50:48.232Z,46.20
2022-11-15T07:53:38.440Z,46.90
2022-11-15T07:56:29.056Z,46.60
2022-11-15T07:59:20.426Z,45.60
2022-11-15T08:02:12.823Z,45.10
2022-11-15T08:05:02.949Z,45.00
2022-11-15T08:07:53.072Z,46.60
2022-11-15T08:10:43.455Z,46.20
2022-11-15T08:13:34.547Z,43.30
2022-11-15T08:16:25.342Z,47.20
2022-11-15T08:19:15.935Z,48.20
2022-11-15T08:22:06.295Z,43.80
2022-11-15T08:24:57.153Z,46.90
2022-11-15T08:27:48.124Z,46.10
2022-11-15T08:30:43.135Z,48.10
2022-11-15T08:33:34.482Z,47.50
2022-11-15T08:36:25.650Z,48.10
2022-11-15T08:39:16.378Z,48.80
2022-11-15T08:42:06.952Z,49.90
2022-11-15T08:44:57.226Z,48.20
2022-11-15T08:47:53.783Z,47.70
2022-11-15T08:50:45.451Z,49.40
2022-11-15T08:53:36.135Z,47.80
2022-11-15T08:56:26.492Z,51.20
2022-11-15T08:59:16.721Z,50.60
2022-11-15T09:02:07.580Z,50.00
2022-11-15T09:04:57.992Z,49.70
2022-11-15T09:07:48.502Z,51.30
2022-11-15T09:10:39.176Z,50.80
2022-11-15T09:13:29.863Z,50.30
2022-11-15T09:16:21.481Z,53.00
2022-11-15T09:19:12.176Z,53.50
2022-11-15T09:22:03.629Z,53.20
2022-11-15T09:24:54.306Z,53.30
2022-11-15T09:27:45.259Z,51.70
2022-11-15T09:30:36.950Z,54.10
2022-11-15T09:33:27.511Z,52.20
2022-11-15T09:36:18.161Z,54.50
2022-11-15T09:39:08.434Z,53.90
2022-11-15T09:42:22.878Z,54.30
2022-11-15T09:45:22.507Z,56.60
2022-11-15T09:48:42.807Z,55.10
2022-11-15T09:51:36.709Z,55.00
2022-11-15T09:54:52.359Z,56.30
2022-11-15T09:57:22.763Z,56.70
2022-11-15T10:00:30.664Z,59.20
2022-11-15T10:03:15.419Z,58.60
2022-11-15T10:05:49.132Z,56.90
2022-11-15T10:08:38.159Z,55.80
2022-11-15T10:14:12.490Z,56.40
2022-11-15T10:17:04.376Z,55.80
2022-11-15T10:19:41.980Z,57.10
2022-11-15T10:22:32.023Z,59.60
2022-11-15T10:25:20.494Z,58.90
2022-11-15T10:27:57.750Z,57.30
2022-11-15T10:30:37.351Z,60.60
2022-11-15T10:33:25.761Z,56.40
2022-11-15T10:36:18.023Z,55.40
2022-11-15T10:38:58.348Z,59.40
2022-11-15T10:41:40.747Z,60.30
2022-11-15T10:44:19.853Z,44.20
2022-11-15T10:47:05.997Z,61.80
2022-11-15T10:49:38.268Z,57.20
2022-11-15T10:52:20.709Z,60.90
2022-11-15T10:54:55.474Z,61.00
2022-11-15T10:57:31.757Z,61.30
2022-11-15T11:00:06.479Z,58.70
2022-11-15T11:02:42.981Z,63.10
2022-11-15T11:08:27.740Z,58.40
2022-11-15T11:11:03.576Z,59.60
2022-11-15T11:13:38.053Z,57.50
2022-11-15T11:16:39.107Z,60.00
2022-11-15T11:19:25.221Z,60.10
2022-11-15T11:22:02.757Z,57.60
2022-11-15T11:24:43.698Z,59.20
2022-11-15T11:27:32.227Z,57.90
2022-11-15T11:30:11.421Z,63.20
2022-11-15T11:33:07.401Z,60.70
2022-11-15T11:35:48.672Z,60.30
2022-11-15T11:38:34.708Z,57.90
2022-11-15T11:41:18.506Z,59.90
2022-11-15T11:44:03.899Z,58.00
2022-11-15T11:46:49.547Z,56.30
2022-11-15T11:49:27.294Z,60.50
2022-11-15T11:52:05.289Z,60.00
2022-11-15T11:54:47.908Z,64.40
2022-11-15T11:57:31.295Z,62.30
2022-11-15T12:00:15.056Z,58.70
2022-11-15T12:02:53.177Z,62.20
2022-11-15T12:05:31.096Z,62.50
2022-11-15T12:08:20.566Z,60.40
2022-11-15T12:10:59.913Z,60.80
2022-11-15T12:13:37.730Z,58.90
2022-11-15T12:16:17.182Z,62.20
2022-11-15T12:18:53.585Z,59.20
2022-11-15T12:21:41.900Z,59.90
2022-11-15T12:24:18.732Z,59.00
2022-11-15T12:26:54.910Z,61.10
2022-11-15T12:29:35.350Z,59.40
2022-11-15T12:32:17.136Z,64.10
2022-11-15T12:34:51.375Z,59.90
2022-11-15T12:37:58.600Z,62.80
2022-11-15T12:40:40.025Z,64.20
2022-11-15T12:43:45.032Z,65.20
2022-11-15T12:46:24.760Z,62.90
2022-11-15T12:48:59.037Z,67.90
2022-11-15T12:52:06.117Z,68.90
2022-11-15T12:55:12.128Z,69.00
2022-11-15T12:57:45.544Z,66.20
2022-11-15T13:00:49.601Z,68.50
2022-11-15T13:03:25.273Z,66.30
2022-11-15T13:06:05.566Z,64.60
2022-11-15T13:08:53.573Z,66.90
2022-11-15T13:11:52.842Z,65.00
2022-11-15T13:14:55.422Z,68.80
2022-11-15T13:17:40.767Z,66.40
2022-11-15T13:20:30.715Z,66.50
2022-11-15T13:23:12.453Z,66.90
2022-11-15T13:26:13.134Z,65.90
2022-11-15T13:28:50.662Z,63.60
2022-11-15T13:31:30.477Z,63.80
2022-11-15T13:34:22.920Z,66.90
2022-11-15T13:36:58.225Z,69.80
2022-11-15T13:39:35.117Z,70.00
2022-11-15T13:42:16.478Z,69.90
2022-11-15T13:45:00.397Z,68.00
2022-11-15T13:47:33.006Z,64.70
2022-11-15T13:50:12.102Z,66.10
2022-11-15T13:52:49.876Z,62.80
2022-11-15T13:55:24.340Z,62.10
2022-11-15T13:57:58.782Z,64.50
2022-11-15T14:00:37.581Z,65.40
2022-11-15T14:03:20.695Z,68.80
2022-11-15T14:06:08.939Z,67.40
2022-11-15T14:08:42.054Z,66.30
2022-11-15T14:11:18.434Z,67.40
2022-11-15T14:14:13.903Z,65.70
2022-11-15T14:16:47.572Z,67.70
2022-11-15T14:19:40.497Z,68.90
2022-11-15T14:22:23.201Z,68.10
2022-11-15T14:25:19.976Z,66.70
2022-11-15T14:28:30.539Z,68.90
2022-11-15T14:31:09.437Z,70.10
2022-11-15T14:33:41.979Z,69.50
2022-11-15T14:36:19.136Z,69.30
2022-11-15T14:38:51.330Z,68.50
2022-11-15T14:41:26.096Z,65.80
2022-11-15T14:43:59.334Z,65.10
2022-11-15T14:46:31.156Z,60.30
2022-11-15T14:49:02.968Z,60.70
2022-11-15T14:51:35.099Z,65.80
2022-11-15T14:54:07.033Z,44.70
2022-11-15T14:56:38.755Z,64.00
2022-11-15T14:59:10.455Z,61.20
2022-11-15T15:01:43.421Z,61.50
2022-11-15T15:04:15.380Z,59.60
2022-11-15T15:06:47.671Z,46.50
2022-11-15T15:09:19.996Z,66.40
2022-11-15T15:11:51.945Z,64.60
2022-11-15T15:14:24.373Z,55.90
2022-11-15T15:16:56.746Z,59.70
2022-11-15T15:19:28.813Z,54.50
2022-11-15T15:22:01.076Z,40.10
2022-11-15T15:24:32.838Z,52.50
2022-11-15T15:27:04.673Z,36.40
2022-11-15T15:29:36.374Z,52.70
2022-11-15T15:32:08.180Z,36.20
2022-11-15T15:34:40.313Z,47.00
2022-11-15T15:37:24.982Z,51.10
2022-11-15T15:39:58.422Z,53.20
2022-11-15T15:42:30.244Z,50.30
2022-11-15T15:45:01.993Z,52.60
2022-11-15T15:47:33.667Z,50.40
2022-11-15T15:50:14.195Z,53.00
2022-11-15T15:52:45.921Z,52.60
2022-11-15T15:55:18.127Z,51.80
2022-11-15T15:57:50.085Z,52.20
2022-11-15T16:00:24.472Z,36.10
2022-11-15T16:02:56.705Z,46.30
2022-11-15T16:05:29.119Z,46.00
2022-11-15T16:08:01.351Z,45.20
2022-11-15T16:10:37.955Z,47.10
2022-11-15T16:13:09.921Z,43.50
2022-11-15T16:15:41.857Z,34.20
2022-11-15T16:18:18.866Z,32.30
2022-11-15T16:20:55.636Z,46.60
2022-11-15T16:23:27.743Z,46.10
2022-11-15T16:25:59.766Z,49.70
2022-11-15T16:28:34.319Z,34.30
2022-11-15T16:31:10.239Z,48.10
2022-11-15T16:33:42.474Z,47.20
2022-11-15T16:36:28.489Z,52.40
2022-11-15T16:39:04.852Z,50.80
2022-11-15T16:41:36.602Z,51.50
2022-11-15T16:44:08.901Z,53.80
2022-11-15T16:46:43.183Z,38.70
2022-11-15T16:49:16.837Z,53.20
2022-11-15T16:51:50.751Z,53.90
2022-11-15T16:54:22.421Z,55.80
2022-11-15T16:56:54.652Z,56.30
2022-11-15T16:59:26.382Z,58.90
2022-11-15T17:01:58.116Z,53.50
2022-11-15T17:04:33.869Z,56.10
2022-11-15T17:07:05.597Z,55.20
2022-11-15T17:09:37.295Z,56.80
2022-11-15T17:12:09.510Z,54.00
2022-11-15T17:14:41.217Z,56.50
2022-11-15T17:17:13.645Z,56.30
2022-11-15T17:19:45.356Z,60.60
2022-11-15T17:22:17.218Z,34.10
2022-11-15T17:24:49.698Z,56.60
2022-11-15T17:27:21.933Z,56.20
2022-11-15T17:29:53.930Z,56.00
2022-11-15T17:32:25.677Z,56.80
2022-11-15T17:34:57.562Z,52.50
2022-11-15T17:37:29.771Z,49.70
2022-11-15T17:40:01.774Z,46.00
2022-11-15T17:42:34.446Z,36.70
2022-11-15T17:45:10.107Z,47.80
2022-11-15T17:47:42.610Z,47.30
2022-11-15T17:50:14.377Z,46.20
2022-11-15T17:52:46.790Z,42.40
2022-11-15T17:55:18.776Z,42.40
2022-11-15T17:57:50.411Z,37.90
2022-11-15T18:00:22.910Z,42.80
2022-11-15T18:02:54.848Z,44.00
2022-11-15T18:07:57.553Z,44.40
2022-11-15T18:10:29.191Z,43.10
2022-11-15T18:13:00.885Z,44.00
2022-11-15T18:15:33.307Z,46.90
2022-11-15T18:20:35.533Z,49.30
2022-11-15T18:23:07.355Z,46.70
2022-11-15T18:25:39.568Z,46.40
2022-11-15T18:28:11.337Z,45.80
2022-11-15T18:30:43.111Z,32.10
2022-11-15T18:33:14.921Z,43.50
2022-11-15T18:35:47.020Z,43.70
2022-11-15T18:38:19.117Z,41.90
2022-11-15T18:40:50.800Z,24.90
2022-11-15T18:43:22.563Z,43.50
2022-11-15T18:45:54.229Z,39.40
2022-11-15T18:48:26.143Z,39.30
2022-11-15T18:51:05.367Z,40.50
2022-11-15T18:53:38.317Z,41.30
2022-11-15T18:58:43.689Z,40.60
2022-11-15T19:01:17.682Z,41.70
2022-11-15T19:03:51.009Z,43.80
2022-11-15T19:06:24.390Z,41.60
2022-11-15T19:08:58.998Z,43.40
2022-11-15T19:11:33.144Z,44.60
2022-11-15T19:14:06.787Z,44.00
2022-11-15T19:16:40.366Z,47.60
2022-11-15T19:19:15.508Z,47.20
2022-11-15T19:21:47.826Z,51.00
2022-11-15T19:24:20.061Z,54.50
2022-11-15T19:26:52.132Z,52.00
2022-11-15T19:29:24.074Z,49.20
2022-11-15T19:31:56.088Z,46.30
2022-11-15T19:34:29.151Z,45.20
2022-11-15T19:37:03.434Z,45.50
2022-11-15T19:39:39.797Z,48.60
2022-11-15T19:42:13.018Z,45.50
2022-11-15T19:44:44.962Z,45.20
2022-11-15T19:47:16.986Z,43.90
2022-11-15T19:49:49.355Z,45.70
2022-11-15T19:52:24.233Z,42.80
2022-11-15T19:54:56.639Z,43.90
2022-11-15T19:57:28.626Z,40.30
2022-11-15T20:00:06.747Z,43.40
2022-11-15T20:02:39.357Z,47.30
2022-11-15T20:05:15.632Z,45.10
2022-11-15T20:07:52.367Z,43.50
2022-11-15T20:10:25.399Z,40.30
2022-11-15T20:12:59.858Z,42.10
2022-11-15T20:15:32.490Z,41.70
2022-11-15T20:18:06.094Z,41.30
2022-11-15T20:20:38.230Z,43.60
2022-11-15T20:23:11.097Z,46.10
2022-11-15T20:25:46.751Z,47.30
2022-11-15T20:28:23.579Z,50.50
2022-11-15T20:30:57.527Z,48.80
2022-11-15T20:33:30.007Z,47.80
2022-11-15T20:38:36.258Z,44.70
2022-11-15T20:41:09.056Z,50.30
2022-11-15T20:43:43.882Z,46.30
2022-11-15T20:46:16.931Z,48.60
2022-11-15T20:48:48.742Z,50.60
2022-11-15T20:51:21.987Z,33.80
2022-11-15T20:53:54.151Z,49.00
2022-11-15T20:56:26.927Z,47.20
2022-11-15T20:58:59.225Z,49.20
2022-11-15T21:01:32.053Z,49.20
2022-11-15T21:04:04.717Z,53.80
2022-11-15T21:06:37.020Z,36.60
2022-11-15T21:09:27.143Z,51.40
2022-11-15T21:12:14.383Z,51.10
2022-11-15T21:14:49.067Z,52.20
2022-11-15T21:17:21.165Z,47.00
2022-11-15T21:19:53.740Z,48.80
2022-11-15T21:22:25.629Z,44.20
2022-11-15T21:24:59.396Z,45.20
2022-11-15T21:27:31.553Z,45.20
2022-11-15T21:30:03.573Z,45.40
2022-11-15T21:32:35.454Z,45.10
2022-11-15T21:35:08.477Z,44.60
2022-11-15T21:37:40.234Z,44.90
2022-11-15T21:40:14.446Z,45.50
2022-11-15T21:42:46.276Z,43.20
2022-11-15T21:45:18.280Z,42.50
2022-11-15T21:47:49.952Z,28.40
2022-11-15T21:50:21.687Z,39.20
2022-11-15T21:52:53.485Z,38.60
2022-11-15T21:55:25.324Z,39.60
2022-11-15T21:57:57.050Z,35.90
2022-11-15T22:00:46.905Z,26.20
2022-11-15T22:03:18.949Z,36.30
2022-11-15T22:05:51.101Z,35.60
2022-11-15T22:08:23.945Z,36.00
2022-11-15T22:13:27.914Z,34.10
2022-11-15T22:16:00.731Z,34.20
2022-11-15T22:18:33.595Z,37.30
2022-11-15T22:21:08.039Z,33.30
2022-11-15T22:23:41.216Z,36.30
2022-11-15T22:26:18.369Z,34.90
2022-11-15T22:28:54.456Z,37.10
2022-11-15T22:31:26.864Z,36.40
2022-11-15T22:33:59.084Z,35.90
2022-11-15T22:36:46.918Z,33.80
2022-11-15T22:39:23.498Z,32.70
2022-11-15T22:41:55.642Z,35.20
2022-11-15T22:44:27.906Z,37.20
2022-11-15T22:47:00.121Z,35.30
2022-11-15T22:49:32.285Z,33.40
2022-11-15T22:52:04.472Z,33.80
2022-11-15T22:54:36.622Z,34.60
2022-11-15T22:57:09.061Z,24.60
2022-11-15T22:59:42.520Z,36.90
2022-11-15T23:02:14.730Z,36.90
2022-11-15T23:04:47.807Z,37.20
2022-11-15T23:07:22.828Z,36.70
2022-11-15T23:10:17.617Z,37.50
2022-11-15T23:13:08.130Z,26.70
2022-11-15T23:16:00.167Z,35.60
2022-11-15T23:18:34.161Z,39.10
2022-11-15T23:21:13.599Z,40.90
2022-11-15T23:23:48.427Z,38.50
2022-11-15T23:26:21.035Z,39.50
2022-11-15T23:31:47.671Z,36.60
2022-11-15T23:34:33.217Z,35.10
2022-11-15T23:37:18.574Z,35.70
2022-11-15T23:39:50.769Z,35.50
2022-11-15T23:42:23.447Z,37.30
2022-11-15T23:47:26.394Z,34.30
2022-11-15T23:49:58.669Z,36.50
2022-11-15T23:52:31.937Z,36.20
2022-11-15T23:55:04.160Z,36.70
2022-11-15T23:57:36.518Z,36.90
